Airport View

Enter AWOS ICAO identifier for current METAR.

ex. KFNL

KMUI 202356Z 00000KT 10SM SCT250 17/11 A3020 RMK AO2A SLP230 T01730113 10259 20173 53007

21 Sep 2019 00:26

Frequency: 124.175

Phone: 717-861-6493

Other Area AWOS: KMDT - KCXY - KLNS - KSEG

TAF KMUI 201900Z 2019/2201 VRB06KT 9999 SCT250 QNH3017INS TX26/2020Z TN10/2111Z LAST NO AMDS AFT 2104 NEXT 2311